sensor_id;sensor_type;location;lat;lon;timestamp;temperature;humidity
67101;DHT22;54019;61.746;16.106;2023-03-15T00:01:02;22.60;23.30
67101;DHT22;54019;61.746;16.106;2023-03-15T00:03:27;22.60;23.10
67101;DHT22;54019;61.746;16.106;2023-03-15T00:05:53;22.70;23.00
67101;DHT22;54019;61.746;16.106;2023-03-15T00:08:19;22.70;22.90
67101;DHT22;54019;61.746;16.106;2023-03-15T00:10:45;22.70;22.80
67101;DHT22;54019;61.746;16.106;2023-03-15T00:13:12;22.70;22.80
67101;DHT22;54019;61.746;16.106;2023-03-15T00:15:43;22.70;22.70
67101;DHT22;54019;61.746;16.106;2023-03-15T00:18:09;22.70;22.90
67101;DHT22;54019;61.746;16.106;2023-03-15T00:20:35;22.60;23.00
67101;DHT22;54019;61.746;16.106;2023-03-15T00:23:01;22.60;23.10
67101;DHT22;54019;61.746;16.106;2023-03-15T00:25:27;22.50;23.30
67101;DHT22;54019;61.746;16.106;2023-03-15T00:27:52;22.50;23.40
67101;DHT22;54019;61.746;16.106;2023-03-15T00:30:19;22.50;23.40
67101;DHT22;54019;61.746;16.106;2023-03-15T00:32:45;22.50;23.40
67101;DHT22;54019;61.746;16.106;2023-03-15T00:35:11;22.50;23.40
67101;DHT22;54019;61.746;16.106;2023-03-15T00:37:36;22.50;23.40
67101;DHT22;54019;61.746;16.106;2023-03-15T00:40:02;22.50;23.20
67101;DHT22;54019;61.746;16.106;2023-03-15T00:42:27;22.60;23.20
67101;DHT22;54019;61.746;16.106;2023-03-15T00:44:53;22.60;23.00
67101;DHT22;54019;61.746;16.106;2023-03-15T00:47:20;22.60;22.90
67101;DHT22;54019;61.746;16.106;2023-03-15T00:49:45;22.70;22.90
67101;DHT22;54019;61.746;16.106;2023-03-15T00:52:11;22.70;22.80
67101;DHT22;54019;61.746;16.106;2023-03-15T00:54:37;22.70;22.70
67101;DHT22;54019;61.746;16.106;2023-03-15T00:57:02;22.70;22.60
67101;DHT22;54019;61.746;16.106;2023-03-15T00:59:28;22.70;22.50
67101;DHT22;54019;61.746;16.106;2023-03-15T01:01:54;22.70;22.50
67101;DHT22;54019;61.746;16.106;2023-03-15T01:04:21;22.60;22.50
67101;DHT22;54019;61.746;16.106;2023-03-15T01:06:47;22.60;22.50
67101;DHT22;54019;61.746;16.106;2023-03-15T01:09:12;22.50;22.60
67101;DHT22;54019;61.746;16.106;2023-03-15T01:11:38;22.50;22.70
67101;DHT22;54019;61.746;16.106;2023-03-15T01:14:03;22.50;22.70
67101;DHT22;54019;61.746;16.106;2023-03-15T01:16:29;22.40;22.50
67101;DHT22;54019;61.746;16.106;2023-03-15T01:18:55;22.50;22.60
67101;DHT22;54019;61.746;16.106;2023-03-15T01:21:22;22.50;22.50
67101;DHT22;54019;61.746;16.106;2023-03-15T01:23:47;22.50;22.40
67101;DHT22;54019;61.746;16.106;2023-03-15T01:26:14;22.60;22.30
67101;DHT22;54019;61.746;16.106;2023-03-15T01:28:40;22.60;22.10
67101;DHT22;54019;61.746;16.106;2023-03-15T01:31:05;22.70;22.00
67101;DHT22;54019;61.746;16.106;2023-03-15T01:33:31;22.70;21.80
67101;DHT22;54019;61.746;16.106;2023-03-15T01:35:57;22.70;21.80
67101;DHT22;54019;61.746;16.106;2023-03-15T01:38:24;22.70;21.70
67101;DHT22;54019;61.746;16.106;2023-03-15T01:40:50;22.70;21.80
67101;DHT22;54019;61.746;16.106;2023-03-15T01:43:16;22.60;22.30
67101;DHT22;54019;61.746;16.106;2023-03-15T01:45:52;22.50;21.80
67101;DHT22;54019;61.746;16.106;2023-03-15T01:48:18;22.50;21.90
67101;DHT22;54019;61.746;16.106;2023-03-15T01:50:44;22.50;21.90
67101;DHT22;54019;61.746;16.106;2023-03-15T01:53:09;22.50;21.80
67101;DHT22;54019;61.746;16.106;2023-03-15T01:55:37;22.50;21.90
67101;DHT22;54019;61.746;16.106;2023-03-15T01:58:03;22.50;21.80
67101;DHT22;54019;61.746;16.106;2023-03-15T02:00:29;22.50;21.70
67101;DHT22;54019;61.746;16.106;2023-03-15T02:02:55;22.50;21.60
67101;DHT22;54019;61.746;16.106;2023-03-15T02:05:23;22.60;21.50
67101;DHT22;54019;61.746;16.106;2023-03-15T02:07:49;22.60;21.40
67101;DHT22;54019;61.746;16.106;2023-03-15T02:10:16;22.60;21.30
67101;DHT22;54019;61.746;16.106;2023-03-15T02:12:45;22.60;21.20
67101;DHT22;54019;61.746;16.106;2023-03-15T02:15:12;22.60;21.20
67101;DHT22;54019;61.746;16.106;2023-03-15T02:17:38;22.70;21.10
67101;DHT22;54019;61.746;16.106;2023-03-15T02:20:08;22.70;21.20
67101;DHT22;54019;61.746;16.106;2023-03-15T02:22:37;22.70;21.10
67101;DHT22;54019;61.746;16.106;2023-03-15T02:25:08;22.60;20.90
67101;DHT22;54019;61.746;16.106;2023-03-15T02:27:39;22.60;21.00
67101;DHT22;54019;61.746;16.106;2023-03-15T02:30:05;22.50;21.10
67101;DHT22;54019;61.746;16.106;2023-03-15T02:32:31;22.50;21.10
67101;DHT22;54019;61.746;16.106;2023-03-15T02:34:57;22.50;21.20
67101;DHT22;54019;61.746;16.106;2023-03-15T02:37:22;22.40;21.10
67101;DHT22;54019;61.746;16.106;2023-03-15T02:39:48;22.50;21.10
67101;DHT22;54019;61.746;16.106;2023-03-15T02:42:13;22.50;21.10
67101;DHT22;54019;61.746;16.106;2023-03-15T02:44:41;22.50;21.00
67101;DHT22;54019;61.746;16.106;2023-03-15T02:47:09;22.50;20.90
67101;DHT22;54019;61.746;16.106;2023-03-15T02:49:36;22.60;20.70
67101;DHT22;54019;61.746;16.106;2023-03-15T02:52:03;22.60;20.60
67101;DHT22;54019;61.746;16.106;2023-03-15T02:54:28;22.70;20.60
67101;DHT22;54019;61.746;16.106;2023-03-15T02:56:54;22.70;20.50
67101;DHT22;54019;61.746;16.106;2023-03-15T02:59:19;22.70;20.40
67101;DHT22;54019;61.746;16.106;2023-03-15T03:01:46;22.70;20.40
67101;DHT22;54019;61.746;16.106;2023-03-15T03:04:12;22.60;20.40
67101;DHT22;54019;61.746;16.106;2023-03-15T03:06:37;22.60;20.40
67101;DHT22;54019;61.746;16.106;2023-03-15T03:09:03;22.50;20.50
67101;DHT22;54019;61.746;16.106;2023-03-15T03:11:28;22.50;21.00
67101;DHT22;54019;61.746;16.106;2023-03-15T03:13:54;22.40;20.50
67101;DHT22;54019;61.746;16.106;2023-03-15T03:16:20;22.40;20.60
67101;DHT22;54019;61.746;16.106;2023-03-15T03:18:47;22.40;20.50
67101;DHT22;54019;61.746;16.106;2023-03-15T03:21:12;22.50;20.50
67101;DHT22;54019;61.746;16.106;2023-03-15T03:23:38;22.50;20.50
67101;DHT22;54019;61.746;16.106;2023-03-15T03:26:10;22.50;20.40
67101;DHT22;54019;61.746;16.106;2023-03-15T03:28:35;22.50;20.40
67101;DHT22;54019;61.746;16.106;2023-03-15T03:31:01;22.50;20.30
67101;DHT22;54019;61.746;16.106;2023-03-15T03:33:26;22.50;20.30
67101;DHT22;54019;61.746;16.106;2023-03-15T03:35:56;22.60;20.20
67101;DHT22;54019;61.746;16.106;2023-03-15T03:38:24;22.60;20.00
67101;DHT22;54019;61.746;16.106;2023-03-15T03:40:50;22.60;20.00
67101;DHT22;54019;61.746;16.106;2023-03-15T03:43:15;22.70;20.00
67101;DHT22;54019;61.746;16.106;2023-03-15T03:45:41;22.70;20.00
67101;DHT22;54019;61.746;16.106;2023-03-15T03:48:06;22.70;20.00
67101;DHT22;54019;61.746;16.106;2023-03-15T03:50:32;22.70;19.90
67101;DHT22;54019;61.746;16.106;2023-03-15T03:52:59;22.70;20.00
67101;DHT22;54019;61.746;16.106;2023-03-15T03:55:24;22.60;20.00
67101;DHT22;54019;61.746;16.106;2023-03-15T03:57:50;22.60;20.00
67101;DHT22;54019;61.746;16.106;2023-03-15T04:00:16;22.50;20.10
67101;DHT22;54019;61.746;16.106;2023-03-15T04:02:42;22.40;20.10
67101;DHT22;54019;61.746;16.106;2023-03-15T04:05:07;22.40;20.10
67101;DHT22;54019;61.746;16.106;2023-03-15T04:07:33;22.40;20.10
67101;DHT22;54019;61.746;16.106;2023-03-15T04:10:00;22.40;20.10
67101;DHT22;54019;61.746;16.106;2023-03-15T04:12:26;22.40;20.00
67101;DHT22;54019;61.746;16.106;2023-03-15T04:14:51;22.40;20.00
67101;DHT22;54019;61.746;16.106;2023-03-15T04:17:17;22.50;20.00
67101;DHT22;54019;61.746;16.106;2023-03-15T04:19:42;22.50;20.00
67101;DHT22;54019;61.746;16.106;2023-03-15T04:22:08;22.50;19.90
67101;DHT22;54019;61.746;16.106;2023-03-15T04:24:34;22.60;19.80
67101;DHT22;54019;61.746;16.106;2023-03-15T04:27:01;22.60;19.80
67101;DHT22;54019;61.746;16.106;2023-03-15T04:29:27;22.60;19.80
67101;DHT22;54019;61.746;16.106;2023-03-15T04:31:52;22.60;19.80
67101;DHT22;54019;61.746;16.106;2023-03-15T04:34:18;22.60;19.80
67101;DHT22;54019;61.746;16.106;2023-03-15T04:36:43;22.50;19.80
67101;DHT22;54019;61.746;16.106;2023-03-15T04:39:09;22.50;19.80
67101;DHT22;54019;61.746;16.106;2023-03-15T04:41:34;22.40;19.80
67101;DHT22;54019;61.746;16.106;2023-03-15T04:44:02;22.50;19.90
67101;DHT22;54019;61.746;16.106;2023-03-15T04:46:27;22.40;19.90
67101;DHT22;54019;61.746;16.106;2023-03-15T04:48:53;22.40;19.90
67101;DHT22;54019;61.746;16.106;2023-03-15T04:51:19;22.40;19.90
67101;DHT22;54019;61.746;16.106;2023-03-15T04:53:44;22.40;20.30
67101;DHT22;54019;61.746;16.106;2023-03-15T04:56:10;22.50;19.90
67101;DHT22;54019;61.746;16.106;2023-03-15T04:58:35;22.50;19.90
67101;DHT22;54019;61.746;16.106;2023-03-15T05:01:02;22.40;19.80
67101;DHT22;54019;61.746;16.106;2023-03-15T05:03:28;22.50;19.80
67101;DHT22;54019;61.746;16.106;2023-03-15T05:05:53;22.50;19.70
67101;DHT22;54019;61.746;16.106;2023-03-15T05:08:19;22.50;19.60
67101;DHT22;54019;61.746;16.106;2023-03-15T05:10:44;22.60;19.60
67101;DHT22;54019;61.746;16.106;2023-03-15T05:13:10;22.60;19.50
67101;DHT22;54019;61.746;16.106;2023-03-15T05:15:35;22.60;19.50
67101;DHT22;54019;61.746;16.106;2023-03-15T05:18:02;22.60;19.50
67101;DHT22;54019;61.746;16.106;2023-03-15T05:20:28;22.50;19.60
67101;DHT22;54019;61.746;16.106;2023-03-15T05:22:53;22.50;19.60
67101;DHT22;54019;61.746;16.106;2023-03-15T05:25:19;22.50;19.70
67101;DHT22;54019;61.746;16.106;2023-03-15T05:27:45;22.40;19.70
67101;DHT22;54019;61.746;16.106;2023-03-15T05:30:11;22.40;19.70
67101;DHT22;54019;61.746;16.106;2023-03-15T05:32:36;22.40;19.60
67101;DHT22;54019;61.746;16.106;2023-03-15T05:35:04;22.40;19.60
67101;DHT22;54019;61.746;16.106;2023-03-15T05:37:30;22.40;19.70
67101;DHT22;54019;61.746;16.106;2023-03-15T05:39:56;22.40;19.60
67101;DHT22;54019;61.746;16.106;2023-03-15T05:42:21;22.40;19.70
67101;DHT22;54019;61.746;16.106;2023-03-15T05:44:47;22.60;20.20
67101;DHT22;54019;61.746;16.106;2023-03-15T05:47:12;22.60;20.30
67101;DHT22;54019;61.746;16.106;2023-03-15T05:49:38;22.70;20.10
67101;DHT22;54019;61.746;16.106;2023-03-15T05:52:05;22.80;20.00
67101;DHT22;54019;61.746;16.106;2023-03-15T05:54:31;22.70;19.90
67101;DHT22;54019;61.746;16.106;2023-03-15T05:56:56;22.70;19.90
67101;DHT22;54019;61.746;16.106;2023-03-15T05:59:22;22.70;19.90
67101;DHT22;54019;61.746;16.106;2023-03-15T06:01:47;22.70;20.10
67101;DHT22;54019;61.746;16.106;2023-03-15T06:04:13;22.70;20.30
67101;DHT22;54019;61.746;16.106;2023-03-15T06:06:38;22.60;20.30
67101;DHT22;54019;61.746;16.106;2023-03-15T06:09:05;22.60;21.00
67101;DHT22;54019;61.746;16.106;2023-03-15T06:11:31;22.60;20.90
67101;DHT22;54019;61.746;16.106;2023-03-15T06:13:56;22.60;20.90
67101;DHT22;54019;61.746;16.106;2023-03-15T06:16:22;22.70;21.10
67101;DHT22;54019;61.746;16.106;2023-03-15T06:18:47;22.60;20.70
67101;DHT22;54019;61.746;16.106;2023-03-15T06:21:13;22.70;20.80
67101;DHT22;54019;61.746;16.106;2023-03-15T06:23:38;22.70;20.70
67101;DHT22;54019;61.746;16.106;2023-03-15T06:26:05;22.70;20.50
67101;DHT22;54019;61.746;16.106;2023-03-15T06:28:31;22.80;20.30
67101;DHT22;54019;61.746;16.106;2023-03-15T06:30:56;22.80;20.20
67101;DHT22;54019;61.746;16.106;2023-03-15T06:33:22;22.80;20.00
67101;DHT22;54019;61.746;16.106;2023-03-15T06:35:47;22.80;19.90
67101;DHT22;54019;61.746;16.106;2023-03-15T06:38:13;22.80;19.90
67101;DHT22;54019;61.746;16.106;2023-03-15T06:40:38;22.80;20.00
67101;DHT22;54019;61.746;16.106;2023-03-15T06:43:05;22.70;20.00
67101;DHT22;54019;61.746;16.106;2023-03-15T06:45:31;22.70;20.00
67101;DHT22;54019;61.746;16.106;2023-03-15T06:47:57;22.70;20.00
67101;DHT22;54019;61.746;16.106;2023-03-15T06:50:22;22.60;20.00
67101;DHT22;54019;61.746;16.106;2023-03-15T06:52:48;22.60;20.00
67101;DHT22;54019;61.746;16.106;2023-03-15T06:55:14;22.60;19.90
67101;DHT22;54019;61.746;16.106;2023-03-15T06:57:39;22.70;20.00
67101;DHT22;54019;61.746;16.106;2023-03-15T07:00:07;22.70;20.00
67101;DHT22;54019;61.746;16.106;2023-03-15T07:02:33;22.80;19.90
67101;DHT22;54019;61.746;16.106;2023-03-15T07:04:58;22.90;19.80
67101;DHT22;54019;61.746;16.106;2023-03-15T07:07:24;23.00;19.70
67101;DHT22;54019;61.746;16.106;2023-03-15T07:09:49;23.00;19.50
67101;DHT22;54019;61.746;16.106;2023-03-15T07:12:15;23.00;19.50
67101;DHT22;54019;61.746;16.106;2023-03-15T07:14:40;23.00;19.50
67101;DHT22;54019;61.746;16.106;2023-03-15T07:17:07;23.00;19.60
67101;DHT22;54019;61.746;16.106;2023-03-15T07:19:33;23.00;19.60
67101;DHT22;54019;61.746;16.106;2023-03-15T07:21:58;23.00;19.60
67101;DHT22;54019;61.746;16.106;2023-03-15T07:24:24;22.90;20.00
67101;DHT22;54019;61.746;16.106;2023-03-15T07:26:49;23.00;19.50
67101;DHT22;54019;61.746;16.106;2023-03-15T07:29:15;22.90;19.50
67101;DHT22;54019;61.746;16.106;2023-03-15T07:31:40;22.90;19.50
67101;DHT22;54019;61.746;16.106;2023-03-15T07:34:07;22.90;19.50
67101;DHT22;54019;61.746;16.106;2023-03-15T07:36:33;23.00;19.50
67101;DHT22;54019;61.746;16.106;2023-03-15T07:38:58;23.00;19.40
67101;DHT22;54019;61.746;16.106;2023-03-15T07:41:24;23.10;19.40
67101;DHT22;54019;61.746;16.106;2023-03-15T07:43:49;23.20;19.40
67101;DHT22;54019;61.746;16.106;2023-03-15T07:46:15;23.30;19.30
67101;DHT22;54019;61.746;16.106;2023-03-15T07:48:40;23.30;19.20
67101;DHT22;54019;61.746;16.106;2023-03-15T07:51:07;23.40;19.20
67101;DHT22;54019;61.746;16.106;2023-03-15T07:53:33;23.40;19.10
67101;DHT22;54019;61.746;16.106;2023-03-15T07:55:58;23.40;19.20
67101;DHT22;54019;61.746;16.106;2023-03-15T07:58:24;23.40;19.30
67101;DHT22;54019;61.746;16.106;2023-03-15T08:00:52;23.40;19.60
67101;DHT22;54019;61.746;16.106;2023-03-15T08:03:18;23.40;19.60
67101;DHT22;54019;61.746;16.106;2023-03-15T08:05:43;23.40;19.50
67101;DHT22;54019;61.746;16.106;2023-03-15T08:08:10;23.40;19.50
67101;DHT22;54019;61.746;16.106;2023-03-15T08:10:36;23.40;19.70
67101;DHT22;54019;61.746;16.106;2023-03-15T08:13:01;23.40;19.50
67101;DHT22;54019;61.746;16.106;2023-03-15T08:15:27;23.40;19.50
67101;DHT22;54019;61.746;16.106;2023-03-15T08:17:52;23.50;19.60
67101;DHT22;54019;61.746;16.106;2023-03-15T08:20:18;23.50;19.50
67101;DHT22;54019;61.746;16.106;2023-03-15T08:22:44;23.60;19.50
67101;DHT22;54019;61.746;16.106;2023-03-15T08:25:12;23.70;19.40
67101;DHT22;54019;61.746;16.106;2023-03-15T08:27:38;23.80;19.40
67101;DHT22;54019;61.746;16.106;2023-03-15T08:30:04;23.80;19.30
67101;DHT22;54019;61.746;16.106;2023-03-15T08:32:30;23.80;19.30
67101;DHT22;54019;61.746;16.106;2023-03-15T08:34:56;23.80;19.20
67101;DHT22;54019;61.746;16.106;2023-03-15T08:37:21;23.80;19.10
67101;DHT22;54019;61.746;16.106;2023-03-15T08:39:47;23.80;19.20
67101;DHT22;54019;61.746;16.106;2023-03-15T08:42:14;23.80;19.10
67101;DHT22;54019;61.746;16.106;2023-03-15T08:44:39;23.80;19.10
67101;DHT22;54019;61.746;16.106;2023-03-15T08:47:05;23.80;19.40
67101;DHT22;54019;61.746;16.106;2023-03-15T08:49:31;23.80;19.60
67101;DHT22;54019;61.746;16.106;2023-03-15T08:51:56;23.80;19.20
67101;DHT22;54019;61.746;16.106;2023-03-15T08:54:22;23.80;19.20
67101;DHT22;54019;61.746;16.106;2023-03-15T08:56:47;23.80;19.30
67101;DHT22;54019;61.746;16.106;2023-03-15T08:59:14;23.80;19.20
67101;DHT22;54019;61.746;16.106;2023-03-15T09:01:40;23.80;19.20
67101;DHT22;54019;61.746;16.106;2023-03-15T09:04:05;23.80;19.20
67101;DHT22;54019;61.746;16.106;2023-03-15T09:06:31;23.80;19.00
67101;DHT22;54019;61.746;16.106;2023-03-15T09:08:56;23.80;19.50
67101;DHT22;54019;61.746;16.106;2023-03-15T09:11:22;23.80;19.00
67101;DHT22;54019;61.746;16.106;2023-03-15T09:13:47;23.80;18.90
67101;DHT22;54019;61.746;16.106;2023-03-15T09:16:14;23.80;18.90
67101;DHT22;54019;61.746;16.106;2023-03-15T09:18:40;23.70;19.00
67101;DHT22;54019;61.746;16.106;2023-03-15T09:21:05;23.70;19.00
67101;DHT22;54019;61.746;16.106;2023-03-15T09:23:31;23.60;19.00
67101;DHT22;54019;61.746;16.106;2023-03-15T09:25:57;23.60;19.00
67101;DHT22;54019;61.746;16.106;2023-03-15T09:28:22;23.60;19.10
67101;DHT22;54019;61.746;16.106;2023-03-15T09:30:48;23.60;19.00
67101;DHT22;54019;61.746;16.106;2023-03-15T09:33:15;23.60;19.10
67101;DHT22;54019;61.746;16.106;2023-03-15T09:35:41;23.60;19.20
67101;DHT22;54019;61.746;16.106;2023-03-15T09:38:06;23.70;19.00
67101;DHT22;54019;61.746;16.106;2023-03-15T09:40:32;23.70;18.90
67101;DHT22;54019;61.746;16.106;2023-03-15T09:43:03;23.80;19.00
67101;DHT22;54019;61.746;16.106;2023-03-15T09:45:34;23.80;19.00
67101;DHT22;54019;61.746;16.106;2023-03-15T09:48:07;23.80;19.10
67101;DHT22;54019;61.746;16.106;2023-03-15T09:50:35;23.80;19.00
67101;DHT22;54019;61.746;16.106;2023-03-15T09:53:03;23.80;18.70
67101;DHT22;54019;61.746;16.106;2023-03-15T09:55:32;23.60;18.30
67101;DHT22;54019;61.746;16.106;2023-03-15T09:57:58;23.60;18.30
67101;DHT22;54019;61.746;16.106;2023-03-15T10:00:25;23.60;18.50
67101;DHT22;54019;61.746;16.106;2023-03-15T10:02:54;23.60;18.40
67101;DHT22;54019;61.746;16.106;2023-03-15T10:05:21;23.50;18.80
67101;DHT22;54019;61.746;16.106;2023-03-15T10:07:49;23.50;18.60
67101;DHT22;54019;61.746;16.106;2023-03-15T10:10:16;23.50;19.00
67101;DHT22;54019;61.746;16.106;2023-03-15T10:12:41;23.50;18.80
67101;DHT22;54019;61.746;16.106;2023-03-15T10:15:25;23.60;18.80
67101;DHT22;54019;61.746;16.106;2023-03-15T10:17:57;23.60;19.00
67101;DHT22;54019;61.746;16.106;2023-03-15T10:20:28;23.70;19.00
67101;DHT22;54019;61.746;16.106;2023-03-15T10:22:57;23.80;19.30
67101;DHT22;54019;61.746;16.106;2023-03-15T10:25:24;23.90;19.10
67101;DHT22;54019;61.746;16.106;2023-03-15T10:27:51;23.90;19.00
67101;DHT22;54019;61.746;16.106;2023-03-15T10:30:19;23.90;19.10
67101;DHT22;54019;61.746;16.106;2023-03-15T10:32:46;23.80;18.80
67101;DHT22;54019;61.746;16.106;2023-03-15T10:35:14;23.80;18.60
67101;DHT22;54019;61.746;16.106;2023-03-15T10:37:40;23.60;18.80
67101;DHT22;54019;61.746;16.106;2023-03-15T10:40:08;23.50;19.00
67101;DHT22;54019;61.746;16.106;2023-03-15T10:42:34;23.40;19.00
67101;DHT22;54019;61.746;16.106;2023-03-15T10:45:11;23.40;19.00
67101;DHT22;54019;61.746;16.106;2023-03-15T10:47:39;23.40;19.20
67101;DHT22;54019;61.746;16.106;2023-03-15T10:50:05;23.40;19.10
67101;DHT22;54019;61.746;16.106;2023-03-15T10:52:33;23.30;19.00
67101;DHT22;54019;61.746;16.106;2023-03-15T10:54:59;23.30;19.00
67101;DHT22;54019;61.746;16.106;2023-03-15T10:57:27;23.20;19.20
67101;DHT22;54019;61.746;16.106;2023-03-15T10:59:57;23.20;19.30
67101;DHT22;54019;61.746;16.106;2023-03-15T11:02:23;23.20;19.20
67101;DHT22;54019;61.746;16.106;2023-03-15T11:04:50;23.20;18.80
67101;DHT22;54019;61.746;16.106;2023-03-15T11:07:23;23.20;18.80
67101;DHT22;54019;61.746;16.106;2023-03-15T11:09:50;23.30;18.70
67101;DHT22;54019;61.746;16.106;2023-03-15T11:12:20;23.20;18.50
67101;DHT22;54019;61.746;16.106;2023-03-15T11:14:48;23.20;18.60
67101;DHT22;54019;61.746;16.106;2023-03-15T11:17:14;23.10;18.40
67101;DHT22;54019;61.746;16.106;2023-03-15T11:19:41;23.10;18.40
67101;DHT22;54019;61.746;16.106;2023-03-15T11:22:11;23.10;18.30
67101;DHT22;54019;61.746;16.106;2023-03-15T11:24:38;23.10;18.40
67101;DHT22;54019;61.746;16.106;2023-03-15T11:27:08;23.00;18.30
67101;DHT22;54019;61.746;16.106;2023-03-15T11:29:35;23.00;18.20
67101;DHT22;54019;61.746;16.106;2023-03-15T11:32:06;23.00;18.30
67101;DHT22;54019;61.746;16.106;2023-03-15T11:34:36;23.00;18.30
67101;DHT22;54019;61.746;16.106;2023-03-15T11:37:03;23.00;18.70
67101;DHT22;54019;61.746;16.106;2023-03-15T11:39:35;23.00;18.50
67101;DHT22;54019;61.746;16.106;2023-03-15T11:42:04;23.10;20.00
67101;DHT22;54019;61.746;16.106;2023-03-15T11:44:32;23.20;19.60
67101;DHT22;54019;61.746;16.106;2023-03-15T11:47:04;23.30;20.00
67101;DHT22;54019;61.746;16.106;2023-03-15T11:49:34;23.30;20.00
67101;DHT22;54019;61.746;16.106;2023-03-15T11:52:00;23.40;20.50
67101;DHT22;54019;61.746;16.106;2023-03-15T11:54:27;23.40;20.00
67101;DHT22;54019;61.746;16.106;2023-03-15T11:56:53;23.30;20.20
67101;DHT22;54019;61.746;16.106;2023-03-15T11:59:23;23.20;19.90
67101;DHT22;54019;61.746;16.106;2023-03-15T12:01:49;23.10;20.00
67101;DHT22;54019;61.746;16.106;2023-03-15T12:09:53;23.00;21.70
67101;DHT22;54019;61.746;16.106;2023-03-15T12:12:42;23.00;22.40
67101;DHT22;54019;61.746;16.106;2023-03-15T12:15:15;22.90;22.00
67101;DHT22;54019;61.746;16.106;2023-03-15T12:18:01;22.90;21.40
67101;DHT22;54019;61.746;16.106;2023-03-15T12:20:29;22.90;21.40
67101;DHT22;54019;61.746;16.106;2023-03-15T12:23:05;22.90;22.80
67101;DHT22;54019;61.746;16.106;2023-03-15T12:25:36;22.70;22.80
67101;DHT22;54019;61.746;16.106;2023-03-15T12:28:03;22.80;22.80
67101;DHT22;54019;61.746;16.106;2023-03-15T12:30:30;22.70;23.20
67101;DHT22;54019;61.746;16.106;2023-03-15T12:32:56;22.70;23.40
67101;DHT22;54019;61.746;16.106;2023-03-15T12:35:23;22.70;23.80
67101;DHT22;54019;61.746;16.106;2023-03-15T12:37:52;22.60;23.80
67101;DHT22;54019;61.746;16.106;2023-03-15T12:43:15;22.70;24.50
67101;DHT22;54019;61.746;16.106;2023-03-15T12:45:59;22.70;24.50
67101;DHT22;54019;61.746;16.106;2023-03-15T12:48:25;22.80;24.30
67101;DHT22;54019;61.746;16.106;2023-03-15T12:50:55;22.80;24.00
67101;DHT22;54019;61.746;16.106;2023-03-15T12:53:22;22.70;23.60
67101;DHT22;54019;61.746;16.106;2023-03-15T12:55:49;22.80;23.40
67101;DHT22;54019;61.746;16.106;2023-03-15T12:58:17;22.80;22.80
67101;DHT22;54019;61.746;16.106;2023-03-15T13:00:43;22.70;23.10
67101;DHT22;54019;61.746;16.106;2023-03-15T13:03:10;22.70;23.10
67101;DHT22;54019;61.746;16.106;2023-03-15T13:05:41;22.70;23.10
67101;DHT22;54019;61.746;16.106;2023-03-15T13:08:15;22.70;22.90
67101;DHT22;54019;61.746;16.106;2023-03-15T13:10:58;22.60;22.40
67101;DHT22;54019;61.746;16.106;2023-03-15T13:16:18;22.60;22.40
67101;DHT22;54019;61.746;16.106;2023-03-15T13:18:47;22.60;22.00
67101;DHT22;54019;61.746;16.106;2023-03-15T13:21:17;22.50;22.30
67101;DHT22;54019;61.746;16.106;2023-03-15T13:23:46;22.60;22.30
67101;DHT22;54019;61.746;16.106;2023-03-15T13:26:16;22.60;22.30
67101;DHT22;54019;61.746;16.106;2023-03-15T13:28:45;22.60;22.20
67101;DHT22;54019;61.746;16.106;2023-03-15T13:31:12;22.70;22.20
67101;DHT22;54019;61.746;16.106;2023-03-15T13:33:45;22.70;21.90
67101;DHT22;54019;61.746;16.106;2023-03-15T13:36:12;22.60;21.70
67101;DHT22;54019;61.746;16.106;2023-03-15T13:38:38;22.70;21.80
67101;DHT22;54019;61.746;16.106;2023-03-15T13:41:05;22.60;21.60
67101;DHT22;54019;61.746;16.106;2023-03-15T13:43:31;22.60;22.10
67101;DHT22;54019;61.746;16.106;2023-03-15T13:45:58;22.60;21.50
67101;DHT22;54019;61.746;16.106;2023-03-15T13:48:26;22.60;21.20
67101;DHT22;54019;61.746;16.106;2023-03-15T13:50:53;22.60;21.60
67101;DHT22;54019;61.746;16.106;2023-03-15T13:53:20;22.60;21.60
67101;DHT22;54019;61.746;16.106;2023-03-15T13:55:48;22.50;21.40
67101;DHT22;54019;61.746;16.106;2023-03-15T13:58:14;22.50;21.40
67101;DHT22;54019;61.746;16.106;2023-03-15T14:00:39;22.50;21.70
67101;DHT22;54019;61.746;16.106;2023-03-15T14:03:06;22.50;21.70
67101;DHT22;54019;61.746;16.106;2023-03-15T14:05:33;22.50;22.30
67101;DHT22;54019;61.746;16.106;2023-03-15T14:08:01;22.60;23.10
67101;DHT22;54019;61.746;16.106;2023-03-15T14:10:28;22.80;23.10
67101;DHT22;54019;61.746;16.106;2023-03-15T14:12:54;22.80;22.90
67101;DHT22;54019;61.746;16.106;2023-03-15T14:15:21;22.90;22.40
67101;DHT22;54019;61.746;16.106;2023-03-15T14:17:58;22.90;22.60
67101;DHT22;54019;61.746;16.106;2023-03-15T14:20:24;22.90;22.50
67101;DHT22;54019;61.746;16.106;2023-03-15T14:22:50;22.90;22.90
67101;DHT22;54019;61.746;16.106;2023-03-15T14:25:20;22.90;22.90
67101;DHT22;54019;61.746;16.106;2023-03-15T14:27:46;22.90;22.90
67101;DHT22;54019;61.746;16.106;2023-03-15T14:30:16;22.90;22.90
67101;DHT22;54019;61.746;16.106;2023-03-15T14:32:49;22.90;22.60
67101;DHT22;54019;61.746;16.106;2023-03-15T14:35:18;22.80;22.20
67101;DHT22;54019;61.746;16.106;2023-03-15T14:37:44;22.80;22.20
67101;DHT22;54019;61.746;16.106;2023-03-15T14:40:11;22.70;23.00
67101;DHT22;54019;61.746;16.106;2023-03-15T14:42:38;22.70;22.70
67101;DHT22;54019;61.746;16.106;2023-03-15T14:45:04;22.70;22.40
67101;DHT22;54019;61.746;16.106;2023-03-15T14:47:30;22.70;22.40
67101;DHT22;54019;61.746;16.106;2023-03-15T14:49:56;22.70;22.20
67101;DHT22;54019;61.746;16.106;2023-03-15T14:52:21;22.60;22.10
67101;DHT22;54019;61.746;16.106;2023-03-15T14:54:48;22.70;22.10
67101;DHT22;54019;61.746;16.106;2023-03-15T14:57:14;22.70;22.20
67101;DHT22;54019;61.746;16.106;2023-03-15T14:59:41;22.70;22.20
67101;DHT22;54019;61.746;16.106;2023-03-15T15:02:08;22.80;22.10
67101;DHT22;54019;61.746;16.106;2023-03-15T15:04:36;22.80;22.30
67101;DHT22;54019;61.746;16.106;2023-03-15T15:07:02;22.90;22.40
67101;DHT22;54019;61.746;16.106;2023-03-15T15:09:27;22.90;22.20
67101;DHT22;54019;61.746;16.106;2023-03-15T15:11:53;22.90;22.00
67101;DHT22;54019;61.746;16.106;2023-03-15T15:14:19;22.90;21.90
67101;DHT22;54019;61.746;16.106;2023-03-15T15:16:46;23.00;22.00
67101;DHT22;54019;61.746;16.106;2023-03-15T15:19:12;23.00;22.50
67101;DHT22;54019;61.746;16.106;2023-03-15T15:21:38;23.10;22.20
67101;DHT22;54019;61.746;16.106;2023-03-15T15:24:04;23.20;22.40